Time;durP1;ratioP1;P1;durP2;ratioP2;P2;SDS_P1;SDS_P2;PMS_P1;PMS_P2;Temp;Humidity;BMP_temperature;BMP_pressure;BME280_temperature;BME280_humidity;BME280_pressure;Samples;Min_cycle;Max_cycle;Signal;HPM_P1;HPM_P2
2022/01/18 00:00:15;;;;;;;8.00;2.40;;;5.20;99.90;;;;;;5035275;28;20423;-87
2022/01/18 00:02:41;;;;;;;7.77;2.30;;;5.20;99.90;;;;;;5035296;28;20438;-87
2022/01/18 00:05:13;;;;;;;9.10;2.53;;;5.20;99.90;;;;;;5034876;28;20484;-88
2022/01/18 00:07:39;;;;;;;6.10;0.90;;;5.20;99.90;;;;;;5053080;28;20520;-88
2022/01/18 00:10:05;;;;;;;9.93;2.40;;;5.20;99.90;;;;;;5035097;28;20471;-87
2022/01/18 00:12:55;;;;;;;8.07;1.80;;;5.20;99.90;;;;;;5035050;28;20932;-86
2022/01/18 00:20:39;;;;;;;6.40;1.23;;;5.20;99.90;;;;;;5052220;28;20271;-86
2022/01/18 00:23:05;;;;;;;6.33;0.87;;;5.20;99.90;;;;;;5052780;28;20896;-86
2022/01/18 00:25:33;;;;;;;9.93;2.23;;;5.20;99.90;;;;;;5034740;28;20413;-86
2022/01/18 00:28:00;;;;;;;12.90;1.87;;;5.30;99.90;;;;;;5034725;28;20213;-87
2022/01/18 00:31:02;;;;;;;22.60;3.97;;;5.30;99.90;;;;;;5052520;28;20813;-86
2022/01/18 00:33:22;;;;;;;11.37;1.87;;;5.30;99.90;;;;;;5052291;28;20416;-86
2022/01/18 00:35:57;;;;;;;10.33;2.70;;;5.30;99.90;;;;;;5052177;28;20631;-87
2022/01/18 00:41:20;;;;;;;9.80;2.80;;;5.30;99.90;;;;;;5039110;28;20840;-87
2022/01/18 00:43:46;;;;;;;16.13;3.13;;;5.30;99.90;;;;;;5038031;28;20424;-86
2022/01/18 00:46:13;;;;;;;12.13;1.70;;;5.30;99.90;;;;;;5034491;28;20422;-86
2022/01/18 00:48:40;;;;;;;11.40;1.53;;;5.30;99.90;;;;;;5052609;28;20243;-87
2022/01/18 00:51:09;;;;;;;20.80;2.30;;;5.30;99.90;;;;;;5053575;28;20481;-87
2022/01/18 00:53:37;;;;;;;14.03;2.70;;;5.40;99.90;;;;;;5052549;28;20427;-87
2022/01/18 00:58:39;;;;;;;11.47;2.50;;;5.30;99.90;;;;;;5050154;28;20419;-87
2022/01/18 01:01:05;;;;;;;11.77;2.57;;;5.30;99.90;;;;;;5056591;28;20413;-86
2022/01/18 01:03:35;;;;;;;11.57;2.67;;;5.30;99.90;;;;;;5032241;28;20431;-87
2022/01/18 01:06:01;;;;;;;14.70;1.80;;;5.30;99.90;;;;;;5039216;28;20268;-88
2022/01/18 01:08:26;;;;;;;14.67;2.33;;;5.40;99.90;;;;;;5057629;28;21095;-90
2022/01/18 01:10:52;;;;;;;17.33;2.20;;;5.40;99.90;;;;;;5048853;28;20488;-91
2022/01/18 01:13:17;;;;;;;13.63;2.43;;;5.30;99.90;;;;;;5033371;28;20228;-90
2022/01/18 01:16:05;;;;;;;14.37;2.77;;;5.40;99.90;;;;;;5036571;28;20186;-91
2022/01/18 01:19:03;;;;;;;9.70;1.83;;;5.40;99.90;;;;;;5039274;28;20176;-91
2022/01/18 01:32:55;;;;;;;7.47;1.00;;;5.50;99.90;;;;;;5057038;28;20454;-90
2022/01/18 01:35:16;;;;;;;9.10;0.97;;;5.40;99.90;;;;;;5056249;28;20458;-89
2022/01/18 01:46:09;;;;;;;6.33;0.90;;;5.50;99.90;;;;;;4985540;28;20426;-87
2022/01/18 01:48:34;;;;;;;7.80;1.70;;;5.50;99.90;;;;;;5038669;28;20559;-90
2022/01/18 01:51:04;;;;;;;10.20;1.17;;;5.50;99.90;;;;;;5055985;28;20170;-86
2022/01/18 01:53:32;;;;;;;11.00;1.50;;;5.50;99.90;;;;;;5056492;28;20167;-89
2022/01/18 01:55:58;;;;;;;10.93;2.07;;;5.50;99.90;;;;;;5056291;28;20409;-90
2022/01/18 01:58:25;;;;;;;6.67;0.80;;;5.50;99.90;;;;;;5056207;28;20509;-88
2022/01/18 02:00:54;;;;;;;10.57;0.77;;;5.50;99.90;;;;;;5038423;28;20236;-89
2022/01/18 02:03:22;;;;;;;8.13;1.43;;;5.40;99.90;;;;;;5041736;28;20483;-89
2022/01/18 02:05:48;;;;;;;8.00;1.20;;;5.50;99.90;;;;;;5055531;28;20406;-87
2022/01/18 02:08:17;;;;;;;5.70;0.87;;;5.50;99.90;;;;;;5055659;28;20468;-88
2022/01/18 02:10:44;;;;;;;5.90;1.17;;;5.50;99.90;;;;;;5055508;28;20209;-89
2022/01/18 02:13:13;;;;;;;6.43;1.20;;;5.50;99.90;;;;;;5057921;28;20450;-87
2022/01/18 02:15:45;;;;;;;8.40;1.10;;;5.50;99.90;;;;;;5058269;28;20426;-86
2022/01/18 02:23:39;;;;;;;13.87;1.63;;;5.60;99.90;;;;;;5056623;28;20919;-87
2022/01/18 02:26:05;;;;;;;7.73;0.97;;;5.60;99.90;;;;;;5056031;28;20421;-91
2022/01/18 02:28:30;;;;;;;12.63;1.27;;;5.60;99.90;;;;;;5055675;28;20667;-90
2022/01/18 02:30:56;;;;;;;10.57;0.80;;;5.60;99.90;;;;;;5056086;28;20492;-91
2022/01/18 02:33:22;;;;;;;14.50;1.60;;;5.60;99.90;;;;;;5056101;28;20634;-89
2022/01/18 02:35:49;;;;;;;8.93;1.17;;;5.60;99.90;;;;;;5055559;28;20445;-89
2022/01/18 02:38:17;;;;;;;3.93;0.87;;;5.70;99.90;;;;;;5055753;28;20517;-91
2022/01/18 02:40:43;;;;;;;3.23;1.10;;;5.60;99.90;;;;;;5055856;28;20743;-90
2022/01/18 02:45:56;;;;;;;5.60;1.20;;;5.70;99.90;;;;;;5055846;28;20765;-86
2022/01/18 02:48:22;;;;;;;10.80;1.70;;;5.70;99.90;;;;;;5055375;28;20885;-90
2022/01/18 02:50:48;;;;;;;5.37;0.87;;;5.60;99.90;;;;;;5055159;28;20417;-85
2022/01/18 02:53:16;;;;;;;4.00;0.87;;;5.60;99.90;;;;;;5055603;28;20541;-89
2022/01/18 02:55:42;;;;;;;7.30;1.50;;;5.70;99.90;;;;;;5055339;28;20414;-90
2022/01/18 02:58:11;;;;;;;5.13;1.33;;;5.70;99.90;;;;;;5037629;28;20421;-90
2022/01/18 03:03:24;;;;;;;6.77;1.30;;;5.70;99.90;;;;;;5055733;28;20995;-88
2022/01/18 03:05:49;;;;;;;7.43;0.67;;;5.70;99.90;;;;;;5054980;28;20421;-91
2022/01/18 03:08:16;;;;;;;7.20;1.50;;;5.70;99.90;;;;;;5037191;28;20513;-87
2022/01/18 03:10:41;;;;;;;3.63;0.53;;;5.70;99.90;;;;;;5055218;28;20162;-89
2022/01/18 03:13:07;;;;;;;2.03;0.23;;;5.70;99.90;;;;;;5037259;28;20444;-91
2022/01/18 03:15:35;;;;;;;7.50;1.30;;;5.70;99.90;;;;;;5054984;28;20173;-89
2022/01/18 03:18:04;;;;;;;8.63;1.27;;;5.70;99.90;;;;;;5055029;28;20246;-89
2022/01/18 03:20:30;;;;;;;2.63;0.63;;;5.70;99.90;;;;;;5055890;28;20462;-90
2022/01/18 03:22:56;;;;;;;4.00;0.80;;;5.70;99.90;;;;;;5061290;28;20433;-88
2022/01/18 03:25:26;;;;;;;1.00;0.30;;;5.70;99.90;;;;;;5061515;28;20180;-86
2022/01/18 03:28:06;;;;;;;4.10;0.80;;;5.70;99.90;;;;;;5078199;28;20472;-86
2022/01/18 03:30:39;;;;;;;4.50;0.40;;;5.70;99.90;;;;;;5061344;28;20448;-87
2022/01/18 03:33:09;;;;;;;3.93;0.53;;;5.80;99.90;;;;;;5051276;28;20826;-88
2022/01/18 03:35:34;;;;;;;4.30;0.70;;;5.80;99.90;;;;;;5037922;28;20430;-87
2022/01/18 03:38:00;;;;;;;1.30;0.60;;;5.80;99.90;;;;;;5034021;28;20448;-87
2022/01/18 03:40:26;;;;;;;4.37;0.73;;;5.90;99.90;;;;;;5033117;28;20178;-88
2022/01/18 03:42:56;;;;;;;2.53;0.43;;;5.80;99.90;;;;;;5036031;28;20421;-89
2022/01/18 03:45:32;;;;;;;3.67;0.97;;;5.80;99.90;;;;;;5054091;28;20448;-89
2022/01/18 03:48:02;;;;;;;2.60;0.40;;;5.80;99.90;;;;;;5054325;28;20825;-89
2022/01/18 03:50:28;;;;;;;1.10;0.23;;;5.90;99.90;;;;;;5053300;28;20418;-90
2022/01/18 03:52:57;;;;;;;4.13;0.43;;;5.90;99.90;;;;;;5054379;28;20411;-90
2022/01/18 03:55:23;;;;;;;1.13;0.37;;;5.90;99.90;;;;;;5037295;28;20764;-91
2022/01/18 03:57:49;;;;;;;3.17;0.70;;;5.90;99.90;;;;;;5040307;28;20433;-90
2022/01/18 04:00:17;;;;;;;3.13;0.60;;;5.90;99.90;;;;;;5055229;28;20436;-91
2022/01/18 04:02:43;;;;;;;2.53;0.40;;;5.90;99.90;;;;;;5054605;28;20920;-90
2022/01/18 04:05:09;;;;;;;2.23;0.60;;;5.90;99.90;;;;;;5054021;28;20417;-92
2022/01/18 04:07:35;;;;;;;1.63;0.23;;;5.90;99.90;;;;;;5036415;28;20540;-91
2022/01/18 04:10:01;;;;;;;7.07;1.77;;;5.90;99.90;;;;;;5036585;28;20484;-90
2022/01/18 04:12:26;;;;;;;5.97;0.70;;;5.90;99.90;;;;;;5054335;28;20526;-90
2022/01/18 04:14:55;;;;;;;4.23;0.40;;;5.90;99.90;;;;;;5045423;28;20634;-90
2022/01/18 04:25:59;;;;;;;0.83;0.70;;;5.90;99.90;;;;;;5054608;28;20466;-91
2022/01/18 04:31:03;;;;;;;4.23;0.67;;;5.90;99.90;;;;;;5045892;28;20417;-91
2022/01/18 04:33:29;;;;;;;0.97;0.30;;;5.90;99.90;;;;;;5035479;28;20422;-85
2022/01/18 04:35:54;;;;;;;2.43;0.33;;;6.00;99.90;;;;;;5035764;28;20814;-92
2022/01/18 04:38:22;;;;;;;9.10;1.00;;;6.00;99.90;;;;;;5023649;28;20733;-89
2022/01/18 04:40:48;;;;;;;0.90;0.23;;;5.90;99.90;;;;;;5035160;28;20202;-87
2022/01/18 04:43:24;;;;;;;6.53;0.57;;;6.00;99.90;;;;;;5053465;28;20402;-90
2022/01/18 04:48:37;;;;;;;4.13;0.20;;;5.90;99.90;;;;;;5053180;28;20561;-89
2022/01/18 04:51:11;;;;;;;1.70;0.60;;;6.00;99.90;;;;;;5053144;28;20445;-90
2022/01/18 04:53:40;;;;;;;4.30;0.60;;;6.10;99.90;;;;;;5035406;28;20178;-86
2022/01/18 04:56:15;;;;;;;3.70;0.30;;;6.10;99.90;;;;;;5053078;28;20409;-86
2022/01/18 04:58:40;;;;;;;3.80;0.77;;;6.00;99.90;;;;;;5052846;28;20487;-85
2022/01/18 05:01:12;;;;;;;4.90;0.27;;;6.00;99.90;;;;;;5053320;28;20444;-87
2022/01/18 05:03:38;;;;;;;1.13;0.30;;;6.00;99.90;;;;;;5053458;28;20248;-86
2022/01/18 05:06:15;;;;;;;3.77;0.30;;;6.00;99.90;;;;;;5052585;28;20932;-89
2022/01/18 05:08:41;;;;;;;4.23;1.30;;;6.00;99.90;;;;;;5052628;28;21006;-89
2022/01/18 05:11:09;;;;;;;4.33;0.67;;;6.00;99.90;;;;;;5035376;28;20463;-91
2022/01/18 05:13:53;;;;;;;2.87;0.73;;;6.00;99.90;;;;;;5035365;28;20539;-90
2022/01/18 05:16:30;;;;;;;6.07;0.40;;;6.00;99.90;;;;;;5035128;28;20816;-90
2022/01/18 05:19:22;;;;;;;2.70;0.33;;;6.00;99.90;;;;;;5052348;28;20467;-89
2022/01/18 05:24:27;;;;;;;3.03;0.33;;;6.00;99.90;;;;;;5053312;28;20417;-89
2022/01/18 05:26:53;;;;;;;0.90;0.30;;;6.00;99.90;;;;;;5048172;28;20501;-90
2022/01/18 05:29:19;;;;;;;3.30;0.77;;;5.90;99.90;;;;;;5034077;28;20853;-90
2022/01/18 05:31:45;;;;;;;3.70;0.30;;;6.00;99.90;;;;;;5052916;28;20419;-89
2022/01/18 05:34:12;;;;;;;1.90;0.20;;;5.90;99.90;;;;;;5052256;28;20182;-90
2022/01/18 05:36:37;;;;;;;6.97;0.40;;;6.00;99.90;;;;;;5035617;28;20209;-88
2022/01/18 05:39:04;;;;;;;1.27;0.40;;;6.00;99.90;;;;;;5035427;28;20437;-90
2022/01/18 05:41:30;;;;;;;4.57;0.40;;;6.00;99.90;;;;;;5035487;28;20175;-88
2022/01/18 05:43:55;;;;;;;5.40;0.43;;;6.00;99.90;;;;;;5052622;28;20430;-87
2022/01/18 05:46:21;;;;;;;6.13;0.70;;;5.90;99.90;;;;;;5054433;28;20414;-89
2022/01/18 05:48:46;;;;;;;5.13;0.40;;;5.80;99.90;;;;;;5056449;28;20678;-89
2022/01/18 05:51:13;;;;;;;3.10;0.50;;;5.80;99.90;;;;;;5038823;28;20167;-90
2022/01/18 05:53:39;;;;;;;3.63;0.80;;;5.80;99.90;;;;;;5039010;28;20179;-90
2022/01/18 05:56:12;;;;;;;6.67;0.40;;;5.80;99.90;;;;;;5056633;28;20405;-91
2022/01/18 05:58:41;;;;;;;4.33;0.70;;;5.80;99.90;;;;;;5056712;28;20775;-89
2022/01/18 06:01:06;;;;;;;10.43;1.47;;;5.80;99.90;;;;;;5056732;28;20404;-90
2022/01/18 06:03:51;;;;;;;4.43;0.40;;;5.80;99.90;;;;;;5038924;28;20432;-87
2022/01/18 06:09:01;;;;;;;4.80;0.90;;;5.70;99.90;;;;;;5057217;28;20462;-90
2022/01/18 06:11:26;;;;;;;4.43;0.83;;;5.70;99.90;;;;;;5055967;28;20424;-91
2022/01/18 06:13:52;;;;;;;5.90;0.73;;;5.60;99.90;;;;;;5056202;28;20182;-90
2022/01/18 06:16:17;;;;;;;4.20;1.23;;;5.60;99.90;;;;;;5057009;28;20177;-91
2022/01/18 06:18:43;;;;;;;4.43;0.80;;;5.60;99.90;;;;;;5056678;28;20260;-90
2022/01/18 06:21:08;;;;;;;3.43;0.37;;;5.60;99.90;;;;;;5037938;28;20174;-90
2022/01/18 06:23:34;;;;;;;3.00;1.17;;;5.60;99.90;;;;;;5038965;28;20220;-89
2022/01/18 06:26:03;;;;;;;5.60;0.40;;;5.50;99.90;;;;;;5056067;28;20170;-91
2022/01/18 06:28:29;;;;;;;2.63;0.73;;;5.50;99.90;;;;;;5055811;28;20205;-87
2022/01/18 06:30:55;;;;;;;4.43;0.87;;;5.50;99.90;;;;;;5055709;28;20448;-91
2022/01/18 06:33:20;;;;;;;4.03;0.60;;;5.50;99.90;;;;;;5038321;28;20424;-87
2022/01/18 06:35:46;;;;;;;14.17;1.30;;;5.50;99.90;;;;;;5037211;28;20201;-86
2022/01/18 06:38:12;;;;;;;6.70;1.73;;;5.50;99.90;;;;;;5037530;28;20169;-88
2022/01/18 06:40:39;;;;;;;5.30;0.77;;;5.50;99.90;;;;;;5055047;28;20560;-89
2022/01/18 06:43:05;;;;;;;4.27;0.70;;;5.50;99.90;;;;;;5055899;28;20409;-91
2022/01/18 06:45:31;;;;;;;7.43;1.40;;;5.50;99.90;;;;;;5038450;28;20179;-87
2022/01/18 06:47:57;;;;;;;5.53;2.17;;;5.50;99.90;;;;;;5037779;28;20459;-91
2022/01/18 06:50:22;;;;;;;7.53;1.40;;;5.50;99.90;;;;;;5037869;28;20419;-91
2022/01/18 06:52:48;;;;;;;7.70;2.30;;;5.50;99.90;;;;;;5056031;28;20520;-90
2022/01/18 06:55:13;;;;;;;10.50;2.20;;;5.60;99.90;;;;;;5037868;28;20181;-90
2022/01/18 06:57:39;;;;;;;7.67;2.17;;;5.60;99.90;;;;;;5055543;28;20181;-91
2022/01/18 07:00:06;;;;;;;9.63;2.73;;;5.60;99.90;;;;;;5037910;28;20194;-90
2022/01/18 07:02:32;;;;;;;6.70;2.50;;;5.70;99.90;;;;;;5039276;28;20198;-89
2022/01/18 07:04:57;;;;;;;3.70;1.40;;;5.60;99.90;;;;;;5040297;28;20429;-91
2022/01/18 07:07:23;;;;;;;11.60;3.73;;;5.60;99.90;;;;;;5037618;28;20265;-90
2022/01/18 07:09:49;;;;;;;16.13;3.33;;;5.60;99.90;;;;;;5037673;28;20179;-89
2022/01/18 07:12:15;;;;;;;10.27;3.37;;;5.70;99.90;;;;;;5037983;28;20513;-90
2022/01/18 07:14:42;;;;;;;10.50;2.90;;;5.70;99.90;;;;;;5037359;28;20645;-88
2022/01/18 07:17:08;;;;;;;7.43;4.23;;;5.70;99.90;;;;;;5037812;28;20475;-91
2022/01/18 07:19:34;;;;;;;11.97;3.60;;;5.70;99.90;;;;;;5054967;28;20463;-91
2022/01/18 07:22:00;;;;;;;12.33;3.30;;;5.70;99.90;;;;;;5055130;28;20470;-90
2022/01/18 07:24:44;;;;;;;13.47;3.90;;;5.70;99.90;;;;;;5037595;28;20421;-91
2022/01/18 07:27:12;;;;;;;7.57;3.20;;;5.80;99.90;;;;;;5037779;28;20416;-91
2022/01/18 07:29:41;;;;;;;15.20;3.70;;;5.80;99.90;;;;;;5037529;28;20700;-87
2022/01/18 07:32:09;;;;;;;16.30;4.30;;;5.80;99.90;;;;;;5055395;28;20406;-91
2022/01/18 07:34:40;;;;;;;11.13;3.27;;;5.80;99.90;;;;;;5054573;28;20414;-90
2022/01/18 07:37:06;;;;;;;14.00;4.23;;;5.90;99.90;;;;;;5055096;28;20417;-92
2022/01/18 07:39:32;;;;;;;13.57;4.43;;;5.90;99.90;;;;;;5055110;28;20419;-92
2022/01/18 07:41:58;;;;;;;15.90;4.10;;;5.90;99.90;;;;;;5037733;28;20998;-92
2022/01/18 07:44:23;;;;;;;10.83;4.70;;;5.90;99.90;;;;;;5055204;28;20183;-91
2022/01/18 07:46:49;;;;;;;11.40;3.73;;;5.90;99.90;;;;;;5055570;28;20173;-92
2022/01/18 07:49:14;;;;;;;12.10;4.10;;;6.00;99.90;;;;;;5055999;28;20206;-91
2022/01/18 07:51:40;;;;;;;20.20;4.20;;;6.00;99.90;;;;;;5062867;28;20171;-91
2022/01/18 07:54:06;;;;;;;18.70;5.03;;;6.00;99.90;;;;;;5045762;28;20196;-91
2022/01/18 07:56:31;;;;;;;13.57;3.97;;;6.10;99.90;;;;;;5047323;28;20181;-91
2022/01/18 07:59:00;;;;;;;15.00;4.47;;;6.10;99.90;;;;;;5046332;28;20185;-91
2022/01/18 08:01:25;;;;;;;17.83;3.87;;;6.10;99.90;;;;;;5054706;28;20166;-90
2022/01/18 08:03:51;;;;;;;16.33;3.93;;;6.10;99.90;;;;;;5054458;28;20436;-90
2022/01/18 08:06:16;;;;;;;17.83;3.67;;;6.10;99.90;;;;;;5037033;28;20167;-89
2022/01/18 08:08:42;;;;;;;20.50;4.97;;;6.10;99.90;;;;;;5035643;28;20210;-91
2022/01/18 08:11:08;;;;;;;17.77;4.13;;;6.10;99.90;;;;;;5037088;28;20200;-91
2022/01/18 08:13:39;;;;;;;14.20;3.47;;;6.20;99.90;;;;;;5054433;28;20260;-90
2022/01/18 08:18:53;;;;;;;18.27;4.87;;;6.20;99.90;;;;;;5054197;28;20458;-92
2022/01/18 08:21:22;;;;;;;13.87;4.70;;;6.20;99.90;;;;;;5037041;28;20440;-91
2022/01/18 08:23:48;;;;;;;17.73;4.60;;;6.20;99.90;;;;;;5054110;28;20466;-90
2022/01/18 08:26:13;;;;;;;27.47;5.30;;;6.20;99.90;;;;;;5055875;28;20432;-91
2022/01/18 08:28:41;;;;;;;21.17;4.73;;;6.20;99.90;;;;;;5056030;28;20488;-91
2022/01/18 08:31:07;;;;;;;12.70;4.40;;;6.20;99.90;;;;;;5056260;28;20178;-92
2022/01/18 08:33:36;;;;;;;12.30;3.63;;;6.30;99.90;;;;;;5055780;28;20421;-91
2022/01/18 08:36:03;;;;;;;15.87;3.97;;;6.30;99.90;;;;;;5038692;28;20172;-91
2022/01/18 08:38:30;;;;;;;22.37;5.90;;;6.40;99.90;;;;;;5054058;28;20747;-89
2022/01/18 08:40:56;;;;;;;19.57;4.37;;;6.40;99.90;;;;;;5053921;28;20410;-90
2022/01/18 08:43:22;;;;;;;13.73;3.93;;;6.40;99.90;;;;;;5036005;28;20482;-89
2022/01/18 08:45:48;;;;;;;16.33;3.03;;;6.40;99.90;;;;;;5036635;28;20500;-90
2022/01/18 08:48:14;;;;;;;12.50;3.27;;;6.50;99.90;;;;;;5055449;28;20203;-91
2022/01/18 08:50:39;;;;;;;13.67;4.90;;;6.50;99.90;;;;;;5053977;28;20434;-89
2022/01/18 08:53:05;;;;;;;19.20;5.23;;;6.50;99.90;;;;;;5053728;28;20540;-87
2022/01/18 08:55:33;;;;;;;23.73;3.40;;;6.50;99.90;;;;;;5035921;28;20175;-90
2022/01/18 08:57:58;;;;;;;18.60;3.70;;;6.60;99.90;;;;;;5035388;28;20187;-90
2022/01/18 09:00:24;;;;;;;17.70;5.53;;;6.60;99.90;;;;;;5035255;28;20760;-86
2022/01/18 09:02:50;;;;;;;15.60;3.63;;;6.70;99.90;;;;;;5053511;28;20179;-87
2022/01/18 09:05:15;;;;;;;16.67;4.93;;;6.70;99.90;;;;;;5052872;28;20187;-91
2022/01/18 09:07:41;;;;;;;13.47;3.50;;;6.70;99.90;;;;;;5053081;28;20658;-90
2022/01/18 09:10:10;;;;;;;19.10;4.07;;;6.70;99.90;;;;;;5035978;28;20181;-89
2022/01/18 09:12:36;;;;;;;14.20;3.33;;;6.70;99.90;;;;;;5053056;28;20421;-89
2022/01/18 09:15:05;;;;;;;14.53;3.00;;;6.70;99.90;;;;;;5053588;28;20412;-89
2022/01/18 09:17:33;;;;;;;14.10;3.70;;;6.80;99.90;;;;;;5035724;28;20180;-88
2022/01/18 09:20:00;;;;;;;9.77;4.23;;;6.70;99.90;;;;;;5035639;28;20479;-90
2022/01/18 09:22:26;;;;;;;20.33;3.23;;;6.80;99.90;;;;;;5038692;28;20481;-90
2022/01/18 09:24:51;;;;;;;16.63;3.73;;;6.80;99.90;;;;;;5057371;28;20422;-90
2022/01/18 09:27:17;;;;;;;9.57;2.70;;;6.80;99.90;;;;;;5040107;28;20198;-89
2022/01/18 09:29:43;;;;;;;12.63;3.10;;;6.80;99.90;;;;;;5039461;28;20246;-90
2022/01/18 09:32:08;;;;;;;22.17;4.00;;;6.80;99.90;;;;;;5040709;28;20516;-90
2022/01/18 09:34:34;;;;;;;19.60;2.70;;;6.80;99.90;;;;;;5058278;28;20418;-92
2022/01/18 09:37:00;;;;;;;18.67;3.73;;;6.90;99.90;;;;;;5053187;28;20179;-87
2022/01/18 09:39:27;;;;;;;22.00;5.10;;;6.90;99.90;;;;;;5055491;28;20175;-89
2022/01/18 09:41:54;;;;;;;22.33;2.90;;;6.90;99.90;;;;;;5076008;28;20441;-88
2022/01/18 09:44:21;;;;;;;15.07;3.37;;;7.00;99.90;;;;;;5073045;28;20426;-88
2022/01/18 09:46:51;;;;;;;16.53;3.63;;;7.00;99.90;;;;;;5064778;28;20489;-88
2022/01/18 09:49:17;;;;;;;14.67;2.83;;;7.00;99.90;;;;;;5056602;28;20473;-89
2022/01/18 09:51:43;;;;;;;13.43;3.47;;;7.00;99.90;;;;;;5038858;28;20913;-89
2022/01/18 09:54:09;;;;;;;15.73;2.67;;;7.00;99.90;;;;;;5038690;28;20426;-89
2022/01/18 09:56:34;;;;;;;14.30;2.90;;;7.10;99.90;;;;;;5056290;28;20409;-89
2022/01/18 09:59:00;;;;;;;16.43;3.40;;;7.00;99.90;;;;;;5038590;28;20634;-89
2022/01/18 10:01:26;;;;;;;12.60;2.50;;;7.00;99.90;;;;;;5038577;28;20171;-89
2022/01/18 10:03:51;;;;;;;18.30;2.13;;;7.00;99.90;;;;;;5056152;28;20171;-89
2022/01/18 10:06:19;;;;;;;11.70;3.13;;;7.00;99.90;;;;;;5057516;28;20329;-88
2022/01/18 10:08:48;;;;;;;21.23;2.93;;;7.10;99.90;;;;;;5056297;28;20336;-89
2022/01/18 10:11:17;;;;;;;13.30;2.67;;;7.00;99.90;;;;;;5056215;28;20410;-89
2022/01/18 10:13:49;;;;;;;16.00;3.10;;;7.00;99.90;;;;;;5056142;28;20448;-87
2022/01/18 10:16:23;;;;;;;14.30;2.40;;;7.10;99.90;;;;;;5037695;28;20993;-87
2022/01/18 10:18:56;;;;;;;16.20;2.60;;;7.10;99.90;;;;;;5055493;28;21054;-89
2022/01/18 10:21:45;;;;;;;13.90;2.63;;;7.10;99.90;;;;;;5038431;28;20425;-89
2022/01/18 10:24:17;;;;;;;15.50;2.73;;;7.10;99.90;;;;;;5038402;28;20421;-90
2022/01/18 10:26:47;;;;;;;8.20;1.60;;;7.10;99.90;;;;;;5055928;28;20406;-90
2022/01/18 10:29:14;;;;;;;12.33;2.13;;;7.10;99.90;;;;;;5038230;28;20481;-89
2022/01/18 10:31:57;;;;;;;5.70;1.27;;;7.10;99.90;;;;;;5037581;28;20413;-89
2022/01/18 10:34:40;;;;;;;10.23;2.97;;;7.20;99.90;;;;;;5037057;28;20414;-89
2022/01/18 10:37:15;;;;;;;17.37;2.50;;;7.20;99.90;;;;;;5018342;28;20422;-89
2022/01/18 10:39:52;;;;;;;15.50;1.43;;;7.20;99.90;;;;;;5017861;28;20851;-87
2022/01/18 10:42:25;;;;;;;8.90;2.03;;;7.30;99.90;;;;;;5035271;28;20624;-89
2022/01/18 10:45:05;;;;;;;9.47;2.53;;;7.30;99.90;;;;;;5035446;28;20981;-88
2022/01/18 10:47:33;;;;;;;12.70;2.20;;;7.30;99.90;;;;;;5035199;28;20403;-88
2022/01/18 10:50:10;;;;;;;10.27;2.40;;;7.40;99.90;;;;;;5034898;28;20903;-88
2022/01/18 10:52:39;;;;;;;12.70;2.03;;;7.40;99.90;;;;;;5035579;28;20402;-89
2022/01/18 10:55:06;;;;;;;5.47;1.73;;;7.40;99.90;;;;;;5035688;28;20415;-90
2022/01/18 10:57:38;;;;;;;8.60;1.73;;;7.50;99.90;;;;;;5035457;28;20466;-87
2022/01/18 11:00:09;;;;;;;10.60;1.10;;;7.50;99.90;;;;;;5034780;28;20424;-87
2022/01/18 11:02:38;;;;;;;13.17;1.47;;;7.60;99.90;;;;;;5034715;28;20404;-87
2022/01/18 11:05:16;;;;;;;14.17;1.63;;;7.60;99.90;;;;;;5016663;28;20445;-87
2022/01/18 11:07:42;;;;;;;11.50;1.10;;;7.60;99.90;;;;;;5016651;28;20419;-87
2022/01/18 11:10:09;;;;;;;12.47;1.90;;;7.70;99.90;;;;;;5015985;28;20446;-87
2022/01/18 11:13:04;;;;;;;3.60;0.60;;;7.70;99.90;;;;;;5034562;28;20412;-87
2022/01/18 11:15:32;;;;;;;8.10;1.37;;;7.80;99.90;;;;;;5016646;28;20440;-87
2022/01/18 11:18:04;;;;;;;7.67;1.57;;;7.80;99.90;;;;;;5034431;28;20475;-87
2022/01/18 11:20:33;;;;;;;6.50;1.37;;;7.80;99.90;;;;;;5052872;28;20550;-87
2022/01/18 11:22:58;;;;;;;9.00;0.37;;;7.80;99.90;;;;;;5054099;28;20419;-86
2022/01/18 11:25:25;;;;;;;6.20;0.60;;;7.70;99.90;;;;;;5054051;28;20427;-86
2022/01/18 11:27:56;;;;;;;4.27;0.93;;;7.70;99.90;;;;;;5054074;28;20210;-85
2022/01/18 11:30:24;;;;;;;11.73;1.60;;;7.60;99.90;;;;;;5054119;28;20437;-88
2022/01/18 11:32:56;;;;;;;3.90;0.40;;;7.60;99.90;;;;;;5036183;28;20983;-87
2022/01/18 11:35:44;;;;;;;4.40;0.60;;;7.60;99.90;;;;;;5035761;28;20444;-87
2022/01/18 11:38:25;;;;;;;6.90;0.93;;;7.60;99.90;;;;;;5053797;28;20519;-87
2022/01/18 11:40:53;;;;;;;6.03;1.30;;;7.70;99.90;;;;;;5035906;28;20436;-86
2022/01/18 11:43:42;;;;;;;8.87;1.10;;;7.70;99.90;;;;;;5053022;28;20409;-86
2022/01/18 11:46:26;;;;;;;15.67;1.93;;;7.70;99.90;;;;;;5053721;28;20418;-86
2022/01/18 11:49:16;;;;;;;7.07;1.10;;;7.70;99.90;;;;;;5053177;28;20864;-86
2022/01/18 11:51:47;;;;;;;3.27;1.03;;;7.70;99.90;;;;;;5053540;28;20402;-86
2022/01/18 11:54:34;;;;;;;8.53;1.27;;;7.70;99.90;;;;;;5035805;28;20423;-86
2022/01/18 11:57:23;;;;;;;4.37;0.57;;;7.70;99.90;;;;;;5053449;28;20410;-87
2022/01/18 11:59:51;;;;;;;5.87;1.97;;;7.70;99.90;;;;;;5035414;28;20421;-87
2022/01/18 12:02:38;;;;;;;5.40;1.27;;;7.70;99.90;;;;;;5053371;28;20483;-85
2022/01/18 12:05:14;;;;;;;2.87;1.13;;;7.80;99.90;;;;;;5035165;28;20426;-86
2022/01/18 12:07:44;;;;;;;8.20;2.23;;;7.80;99.90;;;;;;5052870;28;20425;-86
2022/01/18 12:10:31;;;;;;;6.60;1.80;;;7.80;99.90;;;;;;5053092;28;20428;-87
2022/01/18 12:13:05;;;;;;;14.20;2.57;;;7.70;99.90;;;;;;5053337;28;20407;-88
2022/01/18 12:15:36;;;;;;;8.07;2.97;;;7.80;99.90;;;;;;5053275;28;20417;-87
2022/01/18 12:18:11;;;;;;;11.70;2.30;;;7.80;99.90;;;;;;5035097;28;20517;-87
2022/01/18 12:20:43;;;;;;;11.27;3.10;;;7.80;99.90;;;;;;5053329;28;20454;-87
2022/01/18 12:23:21;;;;;;;7.90;2.17;;;7.80;99.90;;;;;;5035403;28;20447;-87
2022/01/18 12:26:28;;;;;;;11.60;2.67;;;7.80;99.90;;;;;;5053178;28;20426;-87
2022/01/18 12:34:33;;;;;;;9.37;2.43;;;7.70;99.90;;;;;;5052668;28;20435;-87
2022/01/18 12:37:04;;;;;;;4.17;2.23;;;7.70;99.90;;;;;;5052891;28;20486;-87
2022/01/18 12:39:48;;;;;;;8.97;1.90;;;7.70;99.90;;;;;;5052820;28;20917;-86
2022/01/18 12:42:30;;;;;;;8.50;1.93;;;7.70;99.90;;;;;;5052850;28;20406;-86
2022/01/18 12:45:08;;;;;;;10.80;3.00;;;7.70;99.90;;;;;;5052905;28;20406;-87
2022/01/18 12:47:43;;;;;;;5.03;2.17;;;7.70;99.90;;;;;;5034898;28;21016;-86
2022/01/18 12:50:11;;;;;;;6.97;2.03;;;7.70;99.90;;;;;;5052337;28;20422;-87
2022/01/18 12:52:52;;;;;;;7.13;2.57;;;7.70;99.90;;;;;;5052706;28;20976;-87
2022/01/18 12:55:32;;;;;;;3.63;1.90;;;7.60;99.90;;;;;;5054164;28;20421;-86
2022/01/18 12:58:05;;;;;;;3.83;2.10;;;7.60;99.90;;;;;;5057009;28;20472;-86
2022/01/18 13:00:45;;;;;;;8.40;2.90;;;7.60;99.90;;;;;;5056956;28;20772;-87
2022/01/18 13:03:16;;;;;;;7.23;2.27;;;7.50;99.90;;;;;;5038396;28;20454;-88
2022/01/18 13:05:43;;;;;;;4.07;3.20;;;7.50;99.90;;;;;;5057023;28;20414;-87
2022/01/18 13:08:11;;;;;;;8.40;3.13;;;7.50;99.90;;;;;;5056843;28;20465;-88
2022/01/18 13:10:43;;;;;;;14.60;3.93;;;7.40;99.90;;;;;;5039207;28;20948;-87
2022/01/18 13:13:13;;;;;;;7.80;3.07;;;7.30;99.90;;;;;;5056770;28;20406;-86
2022/01/18 13:26:35;;;;;;;5.83;4.03;;;8.20;99.90;;;;;;5056248;28;20802;-86
2022/01/18 13:29:20;;;;;;;8.77;3.80;;;7.30;99.90;;;;;;5056504;28;20465;-87
2022/01/18 13:31:58;;;;;;;9.13;4.53;;;7.30;99.90;;;;;;5056112;28;20445;-87
2022/01/18 13:34:30;;;;;;;8.23;4.13;;;7.30;99.90;;;;;;5055997;28;20405;-87
2022/01/18 13:36:56;;;;;;;8.30;3.43;;;7.30;99.90;;;;;;5037860;28;20459;-86
2022/01/18 13:39:27;;;;;;;7.47;2.80;;;7.30;99.90;;;;;;5056250;28;20774;-86
2022/01/18 13:41:56;;;;;;;10.20;3.60;;;7.20;99.90;;;;;;5055984;28;20167;-85
2022/01/18 13:44:25;;;;;;;4.40;1.80;;;7.20;99.90;;;;;;5030727;28;20429;-87
2022/01/18 13:46:51;;;;;;;4.20;2.40;;;7.20;99.90;;;;;;5028434;28;20425;-86
2022/01/18 13:49:23;;;;;;;4.87;3.37;;;7.20;99.90;;;;;;5026042;28;20532;-86
2022/01/18 13:52:06;;;;;;;5.03;3.00;;;7.20;99.90;;;;;;5049424;28;20409;-86
2022/01/18 13:54:50;;;;;;;8.80;3.53;;;7.20;99.90;;;;;;5044462;28;20445;-86
2022/01/18 13:57:18;;;;;;;4.47;2.67;;;7.20;99.90;;;;;;5055775;28;20413;-86
2022/01/18 13:59:45;;;;;;;7.63;4.00;;;7.20;99.90;;;;;;5055478;28;20544;-86
2022/01/18 14:02:20;;;;;;;5.50;3.27;;;7.20;99.90;;;;;;5055340;28;20508;-86
2022/01/18 14:04:48;;;;;;;5.90;3.23;;;7.20;99.90;;;;;;5055350;28;20418;-87
2022/01/18 14:07:14;;;;;;;6.77;2.30;;;7.20;99.90;;;;;;5054313;28;20418;-87
2022/01/18 14:09:40;;;;;;;3.77;2.10;;;7.20;99.90;;;;;;5055440;28;20520;-85
2022/01/18 14:12:15;;;;;;;5.83;3.70;;;7.10;99.90;;;;;;5055451;28;20975;-86
2022/01/18 14:14:42;;;;;;;6.10;2.27;;;7.10;99.90;;;;;;5055669;28;20423;-85
2022/01/18 14:17:15;;;;;;;7.00;2.90;;;7.00;99.90;;;;;;5055292;28;20416;-86
2022/01/18 14:19:44;;;;;;;6.13;2.17;;;7.10;99.90;;;;;;5054959;28;20456;-86
2022/01/18 14:22:23;;;;;;;5.03;3.37;;;7.10;99.90;;;;;;5054475;28;20918;-86
2022/01/18 14:25:01;;;;;;;4.17;3.47;;;7.10;99.90;;;;;;5020200;28;20433;-86